Brooksville, Florida
Current Conditions -  °F | °C
As of 7:53 AM on Monday 20 Oct 2014 (Local Time) from KBKV Reporting Station
Clear Clear  
Wind Chill: 62°   Ceiling: Unl
Heat Index: 62°   Visibility: 10mi
Dew Point: 60°   Wind: 3mph
Humidity: 93%   Direction: 60°ENE
Pressure: 30.06"   Gusts: NA
Location:  28.55°N, 82.39°W
Report Text: KBKV 201153Z 06003KT 10SM CLR 17/16 A3006 RMK AO2 SLP178 T01670156 10183 20156 53012
Loading
Personal Weather Stations






























Interactive Weather Map
Tropical Storm Tracking
New forecast layout! Learn more

10-Day Weather Forecast

Advertisements
Track Severe Weather on mobile